sensor_id;sensor_type;location;lat;lon;timestamp;pressure;altitude;pressure_sealevel;temperature;humidity
57048;BME280;42934;54.294;18.598;2023-03-04T00:01:01;100116.56;;;3.35;78.79
57048;BME280;42934;54.294;18.598;2023-03-04T00:03:31;100107.88;;;3.39;79.18
57048;BME280;42934;54.294;18.598;2023-03-04T00:06:00;100118.19;;;3.44;78.47
57048;BME280;42934;54.294;18.598;2023-03-04T00:08:31;100108.75;;;3.36;79.21
57048;BME280;42934;54.294;18.598;2023-03-04T00:11:01;100106.94;;;3.43;78.79
57048;BME280;42934;54.294;18.598;2023-03-04T00:13:30;100103.50;;;3.42;79.27
57048;BME280;42934;54.294;18.598;2023-03-04T00:15:59;100102.56;;;3.48;78.81
57048;BME280;42934;54.294;18.598;2023-03-04T00:18:29;100104.31;;;3.46;79.34
57048;BME280;42934;54.294;18.598;2023-03-04T00:20:59;100100.81;;;3.49;79.13
57048;BME280;42934;54.294;18.598;2023-03-04T00:23:28;100100.75;;;3.56;78.68
57048;BME280;42934;54.294;18.598;2023-03-04T00:25:59;100092.06;;;3.57;78.53
57048;BME280;42934;54.294;18.598;2023-03-04T00:28:29;100086.94;;;3.51;79.03
57048;BME280;42934;54.294;18.598;2023-03-04T00:30:58;100098.97;;;3.58;78.69
57048;BME280;42934;54.294;18.598;2023-03-04T00:33:28;100102.41;;;3.60;78.44
57048;BME280;42934;54.294;18.598;2023-03-04T00:35:57;100096.38;;;3.58;78.49
57048;BME280;42934;54.294;18.598;2023-03-04T00:38:28;100091.16;;;3.60;78.53
57048;BME280;42934;54.294;18.598;2023-03-04T00:40:58;100082.44;;;3.64;78.38
57048;BME280;42934;54.294;18.598;2023-03-04T00:43:28;100076.44;;;3.62;78.65
57048;BME280;42934;54.294;18.598;2023-03-04T00:45:59;100072.06;;;3.66;78.44
57048;BME280;42934;54.294;18.598;2023-03-04T00:48:30;100072.00;;;3.69;78.28
57048;BME280;42934;54.294;18.598;2023-03-04T00:50:59;100071.13;;;3.71;78.13
57048;BME280;42934;54.294;18.598;2023-03-04T00:53:29;100065.97;;;3.67;78.52
57048;BME280;42934;54.294;18.598;2023-03-04T00:56:00;100056.47;;;3.64;78.73
57048;BME280;42934;54.294;18.598;2023-03-04T00:58:31;100060.72;;;3.71;78.48
57048;BME280;42934;54.294;18.598;2023-03-04T01:01:00;100052.97;;;3.68;78.17
57048;BME280;42934;54.294;18.598;2023-03-04T01:03:30;100051.19;;;3.70;78.37
57048;BME280;42934;54.294;18.598;2023-03-04T01:06:00;100047.66;;;3.76;78.02
57048;BME280;42934;54.294;18.598;2023-03-04T01:08:29;100037.38;;;3.70;78.15
57048;BME280;42934;54.294;18.598;2023-03-04T01:11:00;100035.56;;;3.75;78.39
57048;BME280;42934;54.294;18.598;2023-03-04T01:13:30;100032.03;;;3.79;77.73
57048;BME280;42934;54.294;18.598;2023-03-04T01:16:00;100030.28;;;3.79;77.74
57048;BME280;42934;54.294;18.598;2023-03-04T01:18:31;100025.13;;;3.78;77.86
57048;BME280;42934;54.294;18.598;2023-03-04T01:21:00;100018.34;;;3.71;78.44
57048;BME280;42934;54.294;18.598;2023-03-04T01:23:30;100021.69;;;3.76;78.22
57048;BME280;42934;54.294;18.598;2023-03-04T01:26:01;100015.59;;;3.78;77.78
57048;BME280;42934;54.294;18.598;2023-03-04T01:28:31;100015.59;;;3.78;78.05
57048;BME280;42934;54.294;18.598;2023-03-04T01:31:02;100007.88;;;3.75;78.30
57048;BME280;42934;54.294;18.598;2023-03-04T01:33:32;100011.34;;;3.74;78.03
57048;BME280;42934;54.294;18.598;2023-03-04T01:36:03;100004.38;;;3.76;78.10
57048;BME280;42934;54.294;18.598;2023-03-04T01:38:33;100007.06;;;3.72;78.09
57048;BME280;42934;54.294;18.598;2023-03-04T01:41:04;99998.41;;;3.71;78.50
57048;BME280;42934;54.294;18.598;2023-03-04T01:43:36;100000.03;;;3.80;78.00
57048;BME280;42934;54.294;18.598;2023-03-04T01:46:06;100003.41;;;3.83;77.70
57048;BME280;42934;54.294;18.598;2023-03-04T01:48:38;99999.13;;;3.79;77.77
57048;BME280;42934;54.294;18.598;2023-03-04T01:51:12;100007.78;;;3.81;77.90
57048;BME280;42934;54.294;18.598;2023-03-04T01:53:45;100003.38;;;3.86;77.72
57048;BME280;42934;54.294;18.598;2023-03-04T01:56:19;100011.09;;;3.90;77.60
57048;BME280;42934;54.294;18.598;2023-03-04T01:59:06;99998.97;;;3.92;77.79
57048;BME280;42934;54.294;18.598;2023-03-04T02:01:37;99992.88;;;3.91;77.47
57048;BME280;42934;54.294;18.598;2023-03-04T02:04:07;99990.22;;;3.96;77.56
57048;BME280;42934;54.294;18.598;2023-03-04T02:06:38;99996.47;;;3.85;77.62
57048;BME280;42934;54.294;18.598;2023-03-04T02:09:09;99986.94;;;3.86;77.76
57048;BME280;42934;54.294;18.598;2023-03-04T02:11:40;99977.28;;;3.94;77.49
57048;BME280;42934;54.294;18.598;2023-03-04T02:14:12;99979.84;;;3.96;77.43
57048;BME280;42934;54.294;18.598;2023-03-04T02:16:42;99995.59;;;3.85;78.08
57048;BME280;42934;54.294;18.598;2023-03-04T02:19:15;99997.34;;;3.84;77.95
57048;BME280;42934;54.294;18.598;2023-03-04T02:21:47;99987.78;;;3.86;77.81
57048;BME280;42934;54.294;18.598;2023-03-04T02:24:21;99992.88;;;3.94;77.64
57048;BME280;42934;54.294;18.598;2023-03-04T02:26:55;99983.38;;;3.92;77.58
57048;BME280;42934;54.294;18.598;2023-03-04T02:29:25;99985.03;;;3.97;77.33
57048;BME280;42934;54.294;18.598;2023-03-04T02:31:55;99978.94;;;3.98;77.45
57048;BME280;42934;54.294;18.598;2023-03-04T02:34:29;99986.78;;;3.94;77.24
57048;BME280;42934;54.294;18.598;2023-03-04T02:37:00;99985.94;;;3.95;77.20
57048;BME280;42934;54.294;18.598;2023-03-04T02:39:33;99978.25;;;3.87;77.26
57048;BME280;42934;54.294;18.598;2023-03-04T02:42:05;99982.47;;;3.94;77.00
57048;BME280;42934;54.294;18.598;2023-03-04T02:44:37;99976.41;;;3.94;76.96
57048;BME280;42934;54.294;18.598;2023-03-04T02:47:08;99978.13;;;3.95;76.85
57048;BME280;42934;54.294;18.598;2023-03-04T02:49:39;99974.69;;;3.93;76.77
57048;BME280;42934;54.294;18.598;2023-03-04T02:52:11;99978.28;;;3.85;77.06
57048;BME280;42934;54.294;18.598;2023-03-04T02:54:41;99976.50;;;3.89;76.90
57048;BME280;42934;54.294;18.598;2023-03-04T02:57:13;99974.75;;;3.88;76.67
57048;BME280;42934;54.294;18.598;2023-03-04T02:59:47;99974.72;;;3.91;76.70
57048;BME280;42934;54.294;18.598;2023-03-04T03:02:20;99967.03;;;3.85;76.58
57048;BME280;42934;54.294;18.598;2023-03-04T03:04:51;99975.75;;;3.82;76.62
57048;BME280;42934;54.294;18.598;2023-03-04T03:07:21;99968.03;;;3.76;76.82
57048;BME280;42934;54.294;18.598;2023-03-04T03:09:50;99967.97;;;3.79;77.17
57048;BME280;42934;54.294;18.598;2023-03-04T03:12:21;99974.91;;;3.79;76.83
57048;BME280;42934;54.294;18.598;2023-03-04T03:14:51;99973.16;;;3.79;76.89
57048;BME280;42934;54.294;18.598;2023-03-04T03:17:22;99978.41;;;3.78;77.06
57048;BME280;42934;54.294;18.598;2023-03-04T03:19:52;99981.91;;;3.77;76.90
57048;BME280;42934;54.294;18.598;2023-03-04T03:22:21;99980.16;;;3.76;76.97
57048;BME280;42934;54.294;18.598;2023-03-04T03:24:51;99980.16;;;3.77;77.10
57048;BME280;42934;54.294;18.598;2023-03-04T03:27:22;99984.50;;;3.75;77.15
57048;BME280;42934;54.294;18.598;2023-03-04T03:29:51;99975.00;;;3.73;77.07
57048;BME280;42934;54.294;18.598;2023-03-04T03:32:21;99973.31;;;3.72;77.13
57048;BME280;42934;54.294;18.598;2023-03-04T03:34:51;99977.66;;;3.71;77.01
57048;BME280;42934;54.294;18.598;2023-03-04T03:37:20;99976.84;;;3.66;77.02
57048;BME280;42934;54.294;18.598;2023-03-04T03:39:50;99971.63;;;3.68;77.34
57048;BME280;42934;54.294;18.598;2023-03-04T03:42:21;99977.69;;;3.68;77.05
57048;BME280;42934;54.294;18.598;2023-03-04T03:44:50;99972.56;;;3.63;77.22
57048;BME280;42934;54.294;18.598;2023-03-04T03:47:20;99972.56;;;3.65;76.80
57048;BME280;42934;54.294;18.598;2023-03-04T03:49:49;99984.66;;;3.64;77.14
57048;BME280;42934;54.294;18.598;2023-03-04T03:52:19;99979.44;;;3.66;77.08
57048;BME280;42934;54.294;18.598;2023-03-04T03:54:48;99969.97;;;3.63;76.94
57048;BME280;42934;54.294;18.598;2023-03-04T03:57:18;99971.66;;;3.64;77.03
57048;BME280;42934;54.294;18.598;2023-03-04T03:59:49;99971.72;;;3.61;77.12
57048;BME280;42934;54.294;18.598;2023-03-04T04:02:18;99968.44;;;3.50;77.35
57048;BME280;42934;54.294;18.598;2023-03-04T04:04:48;99963.22;;;3.53;77.77
57048;BME280;42934;54.294;18.598;2023-03-04T04:07:17;99966.72;;;3.51;77.42
57048;BME280;42934;54.294;18.598;2023-03-04T04:09:47;99957.13;;;3.54;77.00
57048;BME280;42934;54.294;18.598;2023-03-04T04:12:17;99962.41;;;3.48;77.22
57048;BME280;42934;54.294;18.598;2023-03-04T04:14:49;99965.09;;;3.40;77.39
57048;BME280;42934;54.294;18.598;2023-03-04T04:17:18;99965.91;;;3.46;77.27
57048;BME280;42934;54.294;18.598;2023-03-04T04:19:48;99963.25;;;3.50;77.03
57048;BME280;42934;54.294;18.598;2023-03-04T04:22:19;99968.44;;;3.50;76.76
57048;BME280;42934;54.294;18.598;2023-03-04T04:24:49;99964.13;;;3.49;76.97
57048;BME280;42934;54.294;18.598;2023-03-04T04:27:18;99965.06;;;3.44;76.72
57048;BME280;42934;54.294;18.598;2023-03-04T04:29:49;99966.81;;;3.43;76.96
57048;BME280;42934;54.294;18.598;2023-03-04T04:32:19;99964.34;;;3.34;77.49
57048;BME280;42934;54.294;18.598;2023-03-04T04:34:48;99969.53;;;3.32;77.51
57048;BME280;42934;54.294;18.598;2023-03-04T04:37:18;99970.44;;;3.31;77.21
57048;BME280;42934;54.294;18.598;2023-03-04T04:39:47;99967.06;;;3.25;77.55
57048;BME280;42934;54.294;18.598;2023-03-04T04:42:18;99964.47;;;3.23;77.45
57048;BME280;42934;54.294;18.598;2023-03-04T04:44:49;99966.22;;;3.23;77.65
57048;BME280;42934;54.294;18.598;2023-03-04T04:47:19;99955.97;;;3.15;77.86
57048;BME280;42934;54.294;18.598;2023-03-04T04:49:49;99965.38;;;3.21;77.53
57048;BME280;42934;54.294;18.598;2023-03-04T04:52:18;99970.63;;;3.17;77.35
57048;BME280;42934;54.294;18.598;2023-03-04T04:54:48;99961.25;;;3.07;78.02
57048;BME280;42934;54.294;18.598;2023-03-04T04:57:17;99970.00;;;3.00;78.49
57048;BME280;42934;54.294;18.598;2023-03-04T04:59:48;99974.25;;;3.03;78.14
57048;BME280;42934;54.294;18.598;2023-03-04T05:02:18;99970.81;;;3.04;78.13
57048;BME280;42934;54.294;18.598;2023-03-04T05:04:47;99972.59;;;3.00;78.17
57048;BME280;42934;54.294;18.598;2023-03-04T05:07:17;99968.19;;;3.07;77.80
57048;BME280;42934;54.294;18.598;2023-03-04T05:09:47;99961.28;;;3.04;77.79
57048;BME280;42934;54.294;18.598;2023-03-04T05:12:17;99962.22;;;2.99;78.11
57048;BME280;42934;54.294;18.598;2023-03-04T05:14:46;99962.19;;;3.02;78.47
57048;BME280;42934;54.294;18.598;2023-03-04T05:17:17;99964.75;;;3.05;77.54
57048;BME280;42934;54.294;18.598;2023-03-04T05:19:47;99963.03;;;3.04;77.65
57048;BME280;42934;54.294;18.598;2023-03-04T05:22:16;99961.34;;;3.00;78.12
57048;BME280;42934;54.294;18.598;2023-03-04T05:24:46;99957.91;;;2.99;78.17
57048;BME280;42934;54.294;18.598;2023-03-04T05:27:15;99957.09;;;2.95;78.38
57048;BME280;42934;54.294;18.598;2023-03-04T05:29:45;99963.94;;;3.01;77.93
57048;BME280;42934;54.294;18.598;2023-03-04T05:32:14;99962.22;;;3.00;78.38
57048;BME280;42934;54.294;18.598;2023-03-04T05:34:45;99964.81;;;3.00;78.36
57048;BME280;42934;54.294;18.598;2023-03-04T05:37:15;99961.38;;;2.98;78.15
57048;BME280;42934;54.294;18.598;2023-03-04T05:39:44;99956.16;;;3.01;78.17
57048;BME280;42934;54.294;18.598;2023-03-04T05:42:14;99967.41;;;2.99;78.52
57048;BME280;42934;54.294;18.598;2023-03-04T05:44:43;99959.63;;;3.00;78.67
57048;BME280;42934;54.294;18.598;2023-03-04T05:47:13;99969.88;;;3.09;77.79
57048;BME280;42934;54.294;18.598;2023-03-04T05:49:42;99974.19;;;3.10;77.68
57048;BME280;42934;54.294;18.598;2023-03-04T05:52:13;99973.38;;;3.07;77.80
57048;BME280;42934;54.294;18.598;2023-03-04T05:54:43;99971.72;;;3.01;78.32
57048;BME280;42934;54.294;18.598;2023-03-04T05:57:12;99976.91;;;3.01;78.18
57048;BME280;42934;54.294;18.598;2023-03-04T05:59:42;99976.84;;;3.04;78.23
57048;BME280;42934;54.294;18.598;2023-03-04T06:02:11;99982.13;;;2.98;77.87
57048;BME280;42934;54.294;18.598;2023-03-04T06:04:41;99978.63;;;3.01;77.79
57048;BME280;42934;54.294;18.598;2023-03-04T06:07:12;99977.78;;;2.97;77.80
57048;BME280;42934;54.294;18.598;2023-03-04T06:09:42;99979.44;;;3.03;78.04
57048;BME280;42934;54.294;18.598;2023-03-04T06:12:12;99968.19;;;3.05;77.92
57048;BME280;42934;54.294;18.598;2023-03-04T06:14:41;99974.19;;;3.09;77.75
57048;BME280;42934;54.294;18.598;2023-03-04T06:17:11;99978.50;;;3.10;77.33
57048;BME280;42934;54.294;18.598;2023-03-04T06:19:40;99973.25;;;3.14;77.59
57048;BME280;42934;54.294;18.598;2023-03-04T06:22:10;99968.91;;;3.16;77.30
57048;BME280;42934;54.294;18.598;2023-03-04T06:24:41;99971.47;;;3.19;76.72
57048;BME280;42934;54.294;18.598;2023-03-04T06:27:10;99979.28;;;3.16;77.04
57048;BME280;42934;54.294;18.598;2023-03-04T06:29:40;99971.47;;;3.19;77.30
57048;BME280;42934;54.294;18.598;2023-03-04T06:32:09;99983.53;;;3.21;76.93
57048;BME280;42934;54.294;18.598;2023-03-04T06:34:39;99977.53;;;3.17;76.96
57048;BME280;42934;54.294;18.598;2023-03-04T06:37:08;99976.59;;;3.23;76.78
57048;BME280;42934;54.294;18.598;2023-03-04T06:39:39;99980.00;;;3.28;76.87
57048;BME280;42934;54.294;18.598;2023-03-04T06:42:09;99982.56;;;3.29;76.92
57048;BME280;42934;54.294;18.598;2023-03-04T06:44:38;99979.06;;;3.32;76.49
57048;BME280;42934;54.294;18.598;2023-03-04T06:47:08;99985.09;;;3.32;76.32
57048;BME280;42934;54.294;18.598;2023-03-04T06:49:37;99978.16;;;3.34;76.16
57048;BME280;42934;54.294;18.598;2023-03-04T06:52:07;99988.53;;;3.36;76.14
57048;BME280;42934;54.294;18.598;2023-03-04T06:54:39;99983.34;;;3.36;76.17
57048;BME280;42934;54.294;18.598;2023-03-04T06:57:09;99984.16;;;3.39;75.95
57048;BME280;42934;54.294;18.598;2023-03-04T06:59:38;99984.09;;;3.44;75.90
57048;BME280;42934;54.294;18.598;2023-03-04T07:02:10;99990.22;;;3.40;75.60
57048;BME280;42934;54.294;18.598;2023-03-04T07:04:40;99983.28;;;3.40;74.90
57048;BME280;42934;54.294;18.598;2023-03-04T07:07:10;99985.81;;;3.45;74.98
57048;BME280;42934;54.294;18.598;2023-03-04T07:09:41;99991.88;;;3.44;74.90
57048;BME280;42934;54.294;18.598;2023-03-04T07:12:11;99998.75;;;3.48;74.69
57048;BME280;42934;54.294;18.598;2023-03-04T07:14:40;99994.41;;;3.50;74.78
57048;BME280;42934;54.294;18.598;2023-03-04T07:17:09;99998.72;;;3.51;74.35
57048;BME280;42934;54.294;18.598;2023-03-04T07:19:39;100000.41;;;3.54;74.41
57048;BME280;42934;54.294;18.598;2023-03-04T07:22:08;99998.63;;;3.57;74.06
57048;BME280;42934;54.294;18.598;2023-03-04T07:24:38;100004.69;;;3.56;74.23
57048;BME280;42934;54.294;18.598;2023-03-04T07:27:09;99999.50;;;3.55;73.86
57048;BME280;42934;54.294;18.598;2023-03-04T07:29:38;100001.22;;;3.57;73.98
57048;BME280;42934;54.294;18.598;2023-03-04T07:32:08;100014.19;;;3.59;73.73
57048;BME280;42934;54.294;18.598;2023-03-04T07:34:37;100007.22;;;3.61;73.74
57048;BME280;42934;54.294;18.598;2023-03-04T07:37:07;100007.22;;;3.61;73.61
57048;BME280;42934;54.294;18.598;2023-03-04T07:39:36;100015.03;;;3.58;73.50
57048;BME280;42934;54.294;18.598;2023-03-04T07:42:05;100010.66;;;3.63;73.52
57048;BME280;42934;54.294;18.598;2023-03-04T07:44:41;100008.06;;;3.61;73.10
57048;BME280;42934;54.294;18.598;2023-03-04T07:47:10;100011.50;;;3.63;73.06
57048;BME280;42934;54.294;18.598;2023-03-04T07:49:40;100015.75;;;3.68;72.68
57048;BME280;42934;54.294;18.598;2023-03-04T07:52:09;100014.91;;;3.69;72.38
57048;BME280;42934;54.294;18.598;2023-03-04T07:54:41;100015.81;;;3.64;70.98
57048;BME280;42934;54.294;18.598;2023-03-04T07:57:10;100019.31;;;3.62;70.49
57048;BME280;42934;54.294;18.598;2023-03-04T07:59:41;100013.25;;;3.61;70.39
57048;BME280;42934;54.294;18.598;2023-03-04T08:02:13;100019.31;;;3.62;69.24
57048;BME280;42934;54.294;18.598;2023-03-04T08:04:43;100029.66;;;3.65;67.59
57048;BME280;42934;54.294;18.598;2023-03-04T08:07:13;100023.53;;;3.68;65.40
57048;BME280;42934;54.294;18.598;2023-03-04T08:09:42;100013.16;;;3.69;65.18
57048;BME280;42934;54.294;18.598;2023-03-04T08:12:11;100020.91;;;3.72;62.50
57048;BME280;42934;54.294;18.598;2023-03-04T08:14:43;100014.91;;;3.69;62.96
57048;BME280;42934;54.294;18.598;2023-03-04T08:17:12;100019.19;;;3.71;62.73
57048;BME280;42934;54.294;18.598;2023-03-04T08:19:41;100022.63;;;3.72;62.81
57048;BME280;42934;54.294;18.598;2023-03-04T08:22:11;100026.13;;;3.71;61.07
57048;BME280;42934;54.294;18.598;2023-03-04T08:24:41;100030.44;;;3.70;60.83
57048;BME280;42934;54.294;18.598;2023-03-04T08:27:10;100026.91;;;3.76;59.64
57048;BME280;42934;54.294;18.598;2023-03-04T08:29:39;100020.88;;;3.74;58.18
57048;BME280;42934;54.294;18.598;2023-03-04T08:32:10;100021.75;;;3.73;57.33
57048;BME280;42934;54.294;18.598;2023-03-04T08:34:40;100026.06;;;3.74;53.18
57048;BME280;42934;54.294;18.598;2023-03-04T08:37:09;100021.78;;;3.70;53.39
57048;BME280;42934;54.294;18.598;2023-03-04T08:39:38;100025.28;;;3.67;52.98
57048;BME280;42934;54.294;18.598;2023-03-04T08:42:08;100029.63;;;3.67;51.73
57048;BME280;42934;54.294;18.598;2023-03-04T08:44:37;100023.59;;;3.66;51.24
57048;BME280;42934;54.294;18.598;2023-03-04T08:47:06;100035.72;;;3.66;51.94
57048;BME280;42934;54.294;18.598;2023-03-04T08:49:38;100036.56;;;3.66;52.45
57048;BME280;42934;54.294;18.598;2023-03-04T08:52:07;100033.94;;;3.68;52.35
57048;BME280;42934;54.294;18.598;2023-03-04T08:54:37;100032.28;;;3.63;51.13
57048;BME280;42934;54.294;18.598;2023-03-04T08:57:06;100034.72;;;3.73;52.17
57048;BME280;42934;54.294;18.598;2023-03-04T08:59:36;100041.72;;;3.69;52.09
57048;BME280;42934;54.294;18.598;2023-03-04T09:02:05;100040.00;;;3.68;51.15
57048;BME280;42934;54.294;18.598;2023-03-04T09:04:35;100050.41;;;3.67;51.71
57048;BME280;42934;54.294;18.598;2023-03-04T09:07:05;100057.28;;;3.68;51.87
57048;BME280;42934;54.294;18.598;2023-03-04T09:09:36;100049.50;;;3.71;50.64
57048;BME280;42934;54.294;18.598;2023-03-04T09:12:05;100030.44;;;3.72;50.01
57048;BME280;42934;54.294;18.598;2023-03-04T09:14:35;100045.16;;;3.71;50.18
57048;BME280;42934;54.294;18.598;2023-03-04T09:17:04;100045.13;;;3.73;49.97
57048;BME280;42934;54.294;18.598;2023-03-04T09:19:34;100050.31;;;3.74;50.00
57048;BME280;42934;54.294;18.598;2023-03-04T09:22:05;100054.69;;;3.69;48.05
57048;BME280;42934;54.294;18.598;2023-03-04T09:24:34;100064.19;;;3.70;47.38
57048;BME280;42934;54.294;18.598;2023-03-04T09:27:03;100050.34;;;3.70;46.54
57048;BME280;42934;54.294;18.598;2023-03-04T09:29:33;100053.78;;;3.72;46.76
57048;BME280;42934;54.294;18.598;2023-03-04T09:32:02;100058.06;;;3.76;47.13
57048;BME280;42934;54.294;18.598;2023-03-04T09:34:31;100054.59;;;3.75;45.05
57048;BME280;42934;54.294;18.598;2023-03-04T09:37:01;100057.19;;;3.75;46.30
57048;BME280;42934;54.294;18.598;2023-03-04T09:39:32;100052.91;;;3.74;45.63
57048;BME280;42934;54.294;18.598;2023-03-04T09:42:02;100067.53;;;3.78;46.16
57048;BME280;42934;54.294;18.598;2023-03-04T09:44:35;100069.25;;;3.81;45.89
57048;BME280;42934;54.294;18.598;2023-03-04T09:47:08;100064.03;;;3.81;44.94
57048;BME280;42934;54.294;18.598;2023-03-04T09:49:41;100070.19;;;3.75;44.37
57048;BME280;42934;54.294;18.598;2023-03-04T09:52:21;100067.63;;;3.74;44.12
57048;BME280;42934;54.294;18.598;2023-03-04T09:55:03;100061.63;;;3.67;43.74
57048;BME280;42934;54.294;18.598;2023-03-04T09:57:46;100062.53;;;3.64;43.55
57048;BME280;42934;54.294;18.598;2023-03-04T10:00:20;100068.59;;;3.65;44.23
57048;BME280;42934;54.294;18.598;2023-03-04T10:03:05;100063.41;;;3.63;44.60
57048;BME280;42934;54.294;18.598;2023-03-04T10:05:45;100079.00;;;3.65;45.07
57048;BME280;42934;54.294;18.598;2023-03-04T10:08:39;100081.50;;;3.70;44.90
57048;BME280;42934;54.294;18.598;2023-03-04T10:11:14;100077.25;;;3.66;43.95
57048;BME280;42934;54.294;18.598;2023-03-04T10:13:55;100081.50;;;3.70;44.13
57048;BME280;42934;54.294;18.598;2023-03-04T10:16:28;100083.25;;;3.71;44.37
57048;BME280;42934;54.294;18.598;2023-03-04T10:19:02;100082.34;;;3.70;43.70
57048;BME280;42934;54.294;18.598;2023-03-04T10:21:40;100088.44;;;3.71;44.18
57048;BME280;42934;54.294;18.598;2023-03-04T10:24:12;100087.56;;;3.70;43.43
57048;BME280;42934;54.294;18.598;2023-03-04T10:26:45;100085.00;;;3.69;42.80
57048;BME280;42934;54.294;18.598;2023-03-04T10:29:18;100084.09;;;3.70;42.33
57048;BME280;42934;54.294;18.598;2023-03-04T10:31:49;100082.41;;;3.69;40.94
57048;BME280;42934;54.294;18.598;2023-03-04T10:34:18;100068.53;;;3.70;39.23
57048;BME280;42934;54.294;18.598;2023-03-04T10:36:54;100083.25;;;3.69;39.19
57048;BME280;42934;54.294;18.598;2023-03-04T10:39:27;100061.59;;;3.72;40.05
57048;BME280;42934;54.294;18.598;2023-03-04T10:42:00;100063.25;;;3.76;41.14
57048;BME280;42934;54.294;18.598;2023-03-04T10:44:31;100069.28;;;3.78;42.17
57048;BME280;42934;54.294;18.598;2023-03-04T10:47:01;100074.34;;;3.87;42.06
57048;BME280;42934;54.294;18.598;2023-03-04T10:49:49;100081.13;;;3.97;42.92
57048;BME280;42934;54.294;18.598;2023-03-04T10:52:27;100070.66;;;4.03;42.71
57048;BME280;42934;54.294;18.598;2023-03-04T10:54:58;100078.31;;;4.11;41.66
57048;BME280;42934;54.294;18.598;2023-03-04T10:57:34;100076.34;;;4.25;40.36
57048;BME280;42934;54.294;18.598;2023-03-04T11:00:23;100061.50;;;4.32;38.39
57048;BME280;42934;54.294;18.598;2023-03-04T11:02:53;100051.69;;;4.49;37.16
57048;BME280;42934;54.294;18.598;2023-03-04T11:05:41;100059.19;;;4.68;36.38
57048;BME280;42934;54.294;18.598;2023-03-04T11:08:17;100051.81;;;4.90;34.89
57048;BME280;42934;54.294;18.598;2023-03-04T11:10:47;100041.09;;;5.07;34.54
57048;BME280;42934;54.294;18.598;2023-03-04T11:13:21;100033.88;;;5.21;33.44
57048;BME280;42934;54.294;18.598;2023-03-04T11:15:54;100040.38;;;5.42;33.65
57048;BME280;42934;54.294;18.598;2023-03-04T11:18:30;100055.03;;;5.85;33.26
57048;BME280;42934;54.294;18.598;2023-03-04T11:21:05;100031.00;;;6.11;32.35
57048;BME280;42934;54.294;18.598;2023-03-04T11:23:41;100056.00;;;6.54;33.16
57048;BME280;42934;54.294;18.598;2023-03-04T11:26:15;100039.25;;;6.95;32.83
57048;BME280;42934;54.294;18.598;2023-03-04T11:28:48;100049.94;;;7.17;32.35
57048;BME280;42934;54.294;18.598;2023-03-04T11:31:22;100042.84;;;7.22;31.92
57048;BME280;42934;54.294;18.598;2023-03-04T11:33:57;100031.44;;;7.25;31.72
57048;BME280;42934;54.294;18.598;2023-03-04T11:36:34;100026.13;;;7.30;32.46
57048;BME280;42934;54.294;18.598;2023-03-04T11:39:26;100046.66;;;7.40;32.00
57048;BME280;42934;54.294;18.598;2023-03-04T11:42:16;100044.38;;;7.59;32.32
57048;BME280;42934;54.294;18.598;2023-03-04T11:44:50;100058.31;;;7.60;30.84
57048;BME280;42934;54.294;18.598;2023-03-04T11:47:36;100040.56;;;7.69;29.65
57048;BME280;42934;54.294;18.598;2023-03-04T11:50:28;100039.22;;;7.86;29.97
57048;BME280;42934;54.294;18.598;2023-03-04T11:56:08;100038.16;;;7.91;28.31
57048;BME280;42934;54.294;18.598;2023-03-04T12:01:45;100041.38;;;8.26;28.43
57048;BME280;42934;54.294;18.598;2023-03-04T12:04:29;100051.75;;;8.29;27.86
57048;BME280;42934;54.294;18.598;2023-03-04T12:07:13;100041.34;;;8.28;28.21
57048;BME280;42934;54.294;18.598;2023-03-04T12:09:50;100036.72;;;8.36;27.78
57048;BME280;42934;54.294;18.598;2023-03-04T12:12:34;100049.13;;;8.56;29.28
57048;BME280;42934;54.294;18.598;2023-03-04T12:15:16;100035.25;;;8.27;26.29
57048;BME280;42934;54.294;18.598;2023-03-04T12:21:00;100056.56;;;8.43;27.37
57048;BME280;42934;54.294;18.598;2023-03-04T12:23:59;100056.38;;;8.74;28.46
57048;BME280;42934;54.294;18.598;2023-03-04T12:26:37;100066.19;;;8.68;28.33
57048;BME280;42934;54.294;18.598;2023-03-04T12:29:12;100048.91;;;8.89;28.24
57048;BME280;42934;54.294;18.598;2023-03-04T12:31:45;100068.19;;;8.86;28.25
57048;BME280;42934;54.294;18.598;2023-03-04T12:34:43;100057.75;;;9.09;27.92
57048;BME280;42934;54.294;18.598;2023-03-04T12:37:40;100057.59;;;8.64;27.90
57048;BME280;42934;54.294;18.598;2023-03-04T12:40:32;100077.41;;;7.90;28.11
57048;BME280;42934;54.294;18.598;2023-03-04T12:43:26;100088.16;;;7.51;28.93
57048;BME280;42934;54.294;18.598;2023-03-04T12:46:11;100087.75;;;7.04;29.61
57048;BME280;42934;54.294;18.598;2023-03-04T12:48:49;100097.13;;;6.78;29.53
57048;BME280;42934;54.294;18.598;2023-03-04T12:51:31;100103.38;;;6.37;30.08
57048;BME280;42934;54.294;18.598;2023-03-04T12:54:15;100098.31;;;6.29;30.68
57048;BME280;42934;54.294;18.598;2023-03-04T12:56:52;100099.63;;;6.11;31.18
57048;BME280;42934;54.294;18.598;2023-03-04T12:59:23;100110.72;;;5.81;30.89
57048;BME280;42934;54.294;18.598;2023-03-04T13:02:03;100105.09;;;5.59;31.00
57048;BME280;42934;54.294;18.598;2023-03-04T13:04:49;100123.56;;;5.46;31.77
57048;BME280;42934;54.294;18.598;2023-03-04T13:07:35;100120.56;;;5.24;31.82
57048;BME280;42934;54.294;18.598;2023-03-04T13:10:10;100136.47;;;5.09;32.50
57048;BME280;42934;54.294;18.598;2023-03-04T13:12:48;100150.22;;;5.14;33.54
57048;BME280;42934;54.294;18.598;2023-03-04T13:15:30;100142.41;;;5.16;32.40
57048;BME280;42934;54.294;18.598;2023-03-04T13:18:02;100150.28;;;5.13;33.15
57048;BME280;42934;54.294;18.598;2023-03-04T13:20:36;100160.75;;;5.10;33.18
57048;BME280;42934;54.294;18.598;2023-03-04T13:23:23;100142.66;;;5.02;32.05
57048;BME280;42934;54.294;18.598;2023-03-04T13:26:19;100155.75;;;4.97;32.32
57048;BME280;42934;54.294;18.598;2023-03-04T13:29:09;100150.78;;;4.84;32.09
57048;BME280;42934;54.294;18.598;2023-03-04T13:31:58;100167.41;;;4.76;32.52